Time,TemperatureF,DewpointF,PressureIn,WindDirection,WindDirectionDegrees,WindSpeedMPH,WindSpeedGustMPH,Humidity,HourlyPrecipIn,Conditions,Clouds,dailyrainin,SoftwareType,DateUTC
2013-03-29 12:41:00,45.0,33.0,-100.00,SSW,210,9.0,9.0,62,-99.99,,,-99.99,,2013-03-29 16:41:00,
2013-03-29 12:52:00,45.0,33.0,-100.00,SSW,210,9.0,9.0,62,-99.99,,,-99.99,,2013-03-29 16:52:00,
2013-03-29 13:02:00,45.0,33.0,-100.00,SSW,210,9.0,9.0,62,-99.99,,,-99.99,,2013-03-29 17:02:00,
2013-03-29 13:11:00,45.0,33.0,-100.00,SSW,210,9.0,9.0,62,-99.99,,,-99.99,,2013-03-29 17:11:00,
2013-03-29 13:21:00,46.0,32.0,-100.00,SSW,200,7.0,9.0,58,-99.99,,,-99.99,,2013-03-29 17:21:00,
2013-03-29 13:32:00,46.0,32.0,-100.00,SSW,200,7.0,9.0,58,-99.99,,,-99.99,,2013-03-29 17:32:00,
2013-03-29 13:41:00,47.0,30.0,-100.00,SSW,200,7.0,9.0,52,-99.99,,,-99.99,,2013-03-29 17:41:00,
2013-03-29 13:52:00,47.0,30.0,-100.00,SSW,200,7.0,9.0,52,-99.99,,,-99.99,,2013-03-29 17:52:00,
2013-03-29 14:01:00,47.0,30.0,-100.00,SSW,200,7.0,9.0,52,-99.99,,,-99.99,,2013-03-29 18:01:00,
2013-03-29 14:21:00,47.0,30.0,-100.00,SSW,210,7.0,9.0,51,-99.99,,,-99.99,,2013-03-29 18:21:00,
2013-03-29 14:32:00,47.0,30.0,-100.00,SSW,210,7.0,9.0,51,-99.99,,,-99.99,,2013-03-29 18:32:00,
2013-03-29 14:42:00,47.0,32.0,-100.00,West,260,7.0,9.0,54,-99.99,,,-99.99,,2013-03-29 18:42:00,
2013-03-29 14:51:00,47.0,32.0,-100.00,West,260,7.0,9.0,54,-99.99,,,-99.99,,2013-03-29 18:51:00,
2013-03-29 15:01:00,47.0,32.0,-100.00,West,260,7.0,9.0,54,-99.99,,,-99.99,,2013-03-29 19:01:00,
2013-03-29 15:11:00,47.0,32.0,-100.00,West,260,7.0,9.0,54,-99.99,,,-99.99,,2013-03-29 19:11:00,
2013-03-29 15:21:00,49.0,29.0,-100.00,WNW,290,7.0,9.0,45,-99.99,,,-99.99,,2013-03-29 19:21:00,
2013-03-29 15:31:00,49.0,29.0,-100.00,WNW,290,7.0,9.0,45,-99.99,,,-99.99,,2013-03-29 19:31:00,
2013-03-29 15:42:00,49.0,29.0,-100.00,WNW,290,7.0,9.0,45,-99.99,,,-99.99,,2013-03-29 19:42:00,
2013-03-29 15:52:00,48.0,30.0,-100.00,WNW,290,11.0,16.0,48,-99.99,,,-99.99,,2013-03-29 19:52:00,
2013-03-29 16:02:00,48.0,30.0,-100.00,WNW,290,11.0,16.0,48,-99.99,,,-99.99,,2013-03-29 20:02:00,
2013-03-29 16:11:00,48.0,30.0,-100.00,WNW,290,11.0,16.0,48,-99.99,,,-99.99,,2013-03-29 20:11:00,
2013-03-29 16:21:00,48.0,30.0,-100.00,WNW,290,11.0,13.0,49,-99.99,,,-99.99,,2013-03-29 20:21:00,
2013-03-29 16:31:00,48.0,30.0,-100.00,WNW,290,11.0,13.0,49,-99.99,,,-99.99,,2013-03-29 20:31:00,
2013-03-29 16:41:00,48.0,30.0,-100.00,WNW,290,11.0,13.0,49,-99.99,,,-99.99,,2013-03-29 20:41:00,
2013-03-29 16:51:00,48.0,30.0,-100.00,WNW,290,11.0,13.0,49,-99.99,,,-99.99,,2013-03-29 20:51:00,
2013-03-29 17:01:00,48.0,30.0,-100.00,WNW,290,11.0,13.0,49,-99.99,,,-99.99,,2013-03-29 21:01:00,
2013-03-29 17:21:00,49.0,28.0,-100.00,WNW,300,11.0,13.0,43,-99.99,,,-99.99,,2013-03-29 21:21:00,
2013-03-29 17:32:00,49.0,28.0,-100.00,WNW,300,11.0,13.0,43,-99.99,,,-99.99,,2013-03-29 21:32:00,
2013-03-29 17:42:00,49.0,28.0,-100.00,WNW,300,11.0,13.0,43,-99.99,,,-99.99,,2013-03-29 21:42:00,
2013-03-29 17:52:00,48.0,29.0,-100.00,NW,310,13.0,18.0,47,-99.99,,,-99.99,,2013-03-29 21:52:00,
2013-03-29 18:02:00,48.0,29.0,-100.00,NW,310,13.0,18.0,47,-99.99,,,-99.99,,2013-03-29 22:02:00,
2013-03-29 18:12:00,48.0,29.0,-100.00,NW,310,13.0,18.0,47,-99.99,,,-99.99,,2013-03-29 22:12:00,
2013-03-29 18:22:00,48.0,30.0,-100.00,NW,310,16.0,20.0,49,-99.99,,,-99.99,,2013-03-29 22:22:00,
2013-03-29 18:32:00,48.0,30.0,-100.00,NW,310,16.0,20.0,49,-99.99,,,-99.99,,2013-03-29 22:32:00,
2013-03-29 18:42:00,47.0,31.0,-100.00,WNW,300,13.0,20.0,52,-99.99,,,-99.99,,2013-03-29 22:42:00,
2013-03-29 18:52:00,47.0,31.0,-100.00,WNW,300,13.0,20.0,52,-99.99,,,-99.99,,2013-03-29 22:52:00,
2013-03-29 19:02:00,47.0,31.0,-100.00,WNW,300,13.0,20.0,52,-99.99,,,-99.99,,2013-03-29 23:02:00,
2013-03-29 19:11:00,47.0,30.0,-100.00,NW,310,16.0,20.0,52,-99.99,,,-99.99,,2013-03-29 23:11:00,
2013-03-29 19:21:00,47.0,30.0,-100.00,NW,310,16.0,20.0,52,-99.99,,,-99.99,,2013-03-29 23:21:00,
2013-03-29 19:31:00,47.0,30.0,-100.00,NW,310,16.0,20.0,52,-99.99,,,-99.99,,2013-03-29 23:31:00,
2013-03-29 19:41:00,47.0,30.0,-100.00,NW,310,16.0,20.0,52,-99.99,,,-99.99,,2013-03-29 23:41:00,
2013-03-29 19:52:00,47.0,30.0,-100.00,NW,310,16.0,22.0,51,-99.99,,,-99.99,,2013-03-29 23:52:00,
2013-03-29 20:02:00,47.0,30.0,-100.00,NW,310,16.0,22.0,51,-99.99,,,-99.99,,2013-03-30 00:02:00,
2013-03-29 20:21:00,46.0,30.0,-100.00,NW,310,13.0,18.0,53,-99.99,,,-99.99,,2013-03-30 00:21:00,
2013-03-29 20:31:00,46.0,30.0,-100.00,NW,310,13.0,18.0,53,-99.99,,,-99.99,,2013-03-30 00:31:00,
2013-03-29 20:42:00,46.0,30.0,-100.00,NW,310,13.0,18.0,53,-99.99,,,-99.99,,2013-03-30 00:42:00,
2013-03-29 20:52:00,45.0,30.0,-100.00,NW,320,13.0,18.0,55,-99.99,,,-99.99,,2013-03-30 00:52:00,
2013-03-29 21:01:00,45.0,30.0,-100.00,NW,320,13.0,18.0,55,-99.99,,,-99.99,,2013-03-30 01:01:00,
2013-03-29 21:21:00,45.0,31.0,-100.00,NW,310,16.0,18.0,56,-99.99,,,-99.99,,2013-03-30 01:21:00,
2013-03-29 21:32:00,45.0,31.0,-100.00,NW,310,16.0,18.0,56,-99.99,,,-99.99,,2013-03-30 01:32:00,
2013-03-29 21:41:00,44.0,31.0,-100.00,NW,310,9.0,11.0,60,-99.99,,,-99.99,,2013-03-30 01:41:00,
2013-03-29 21:52:00,44.0,31.0,-100.00,NW,310,9.0,11.0,60,-99.99,,,-99.99,,2013-03-30 01:52:00,
2013-03-29 22:01:00,44.0,31.0,-100.00,NW,310,9.0,11.0,60,-99.99,,,-99.99,,2013-03-30 02:01:00,
2013-03-29 22:11:00,44.0,31.0,-100.00,NW,310,9.0,11.0,60,-99.99,,,-99.99,,2013-03-30 02:11:00,
2013-03-29 22:21:00,44.0,32.0,-100.00,WNW,290,9.0,11.0,63,-99.99,,,-99.99,,2013-03-30 02:21:00,
2013-03-29 22:32:00,44.0,32.0,-100.00,WNW,290,9.0,11.0,63,-99.99,,,-99.99,,2013-03-30 02:32:00,
2013-03-29 22:41:00,44.0,32.0,-100.00,WNW,290,11.0,13.0,60,-99.99,,,-99.99,,2013-03-30 02:41:00,
2013-03-29 22:52:00,44.0,32.0,-100.00,WNW,290,11.0,13.0,60,-99.99,,,-99.99,,2013-03-30 02:52:00,
2013-03-29 23:01:00,44.0,32.0,-100.00,WNW,290,11.0,13.0,60,-99.99,,,-99.99,,2013-03-30 03:01:00,
2013-03-29 23:11:00,44.0,32.0,-100.00,WNW,300,9.0,13.0,62,-99.99,,,-99.99,,2013-03-30 03:11:00,
2013-03-29 23:21:00,44.0,32.0,-100.00,WNW,300,9.0,13.0,62,-99.99,,,-99.99,,2013-03-30 03:21:00,
2013-03-29 23:32:00,44.0,32.0,-100.00,WNW,300,9.0,13.0,62,-99.99,,,-99.99,,2013-03-30 03:32:00,
2013-03-29 23:43:00,44.0,32.0,-100.00,WNW,300,9.0,13.0,62,-99.99,,,-99.99,,2013-03-30 03:43:00,
2013-03-29 23:52:00,44.0,32.0,-100.00,WNW,300,11.0,16.0,62,-99.99,,,-99.99,,2013-03-30 03:52:00,